Time;durP1;ratioP1;P1;durP2;ratioP2;P2;SDS_P1;SDS_P2;PMS_P1;PMS_P2;Temp;Humidity;BMP_temperature;BMP_pressure;BME280_temperature;BME280_humidity;BME280_pressure;Samples;Min_cycle;Max_cycle;Signal;HPM_P1;HPM_P2
2024/03/14 00:01:26;;;;;;;15.73;7.72;;;11.30;99.90;;;;;;5116387;27;20684;-61
2024/03/14 00:03:54;;;;;;;12.85;7.10;;;11.30;99.90;;;;;;5123880;27;20126;-62
2024/03/14 00:06:20;;;;;;;13.35;7.05;;;11.30;99.90;;;;;;5124976;27;20709;-61
2024/03/14 00:08:46;;;;;;;14.68;7.78;;;11.30;99.90;;;;;;5121909;27;20530;-61
2024/03/14 00:11:11;;;;;;;10.35;7.13;;;11.30;99.90;;;;;;5118323;27;20039;-60
2024/03/14 00:13:37;;;;;;;12.88;7.40;;;11.30;99.90;;;;;;5125876;27;20505;-61
2024/03/14 00:16:03;;;;;;;11.65;7.57;;;11.30;99.90;;;;;;5126762;27;20047;-61
2024/03/14 00:18:29;;;;;;;14.23;7.55;;;11.30;99.90;;;;;;5111280;27;20064;-61
2024/03/14 00:20:55;;;;;;;16.40;7.85;;;11.30;99.90;;;;;;5119022;27;20039;-61
2024/03/14 00:23:23;;;;;;;10.48;6.45;;;11.30;99.90;;;;;;5114375;27;20094;-61
2024/03/14 00:25:51;;;;;;;12.05;7.80;;;11.30;99.90;;;;;;5121537;27;20072;-61
2024/03/14 00:28:18;;;;;;;13.57;7.57;;;11.30;99.90;;;;;;5116303;27;20042;-62
2024/03/14 00:30:44;;;;;;;9.30;6.47;;;11.30;99.90;;;;;;5120709;27;20398;-61
2024/03/14 00:33:10;;;;;;;10.77;6.78;;;11.30;99.90;;;;;;5123484;27;20031;-61
2024/03/14 00:35:39;;;;;;;10.63;6.97;;;11.30;99.90;;;;;;5119061;27;20481;-61
2024/03/14 00:38:05;;;;;;;14.70;7.32;;;11.30;99.90;;;;;;5117478;27;20423;-61
2024/03/14 00:40:31;;;;;;;11.27;6.35;;;11.30;99.90;;;;;;5115358;27;20036;-61
2024/03/14 00:42:57;;;;;;;14.02;7.18;;;11.30;99.90;;;;;;5115861;27;20035;-61
2024/03/14 00:45:23;;;;;;;9.32;6.10;;;11.30;99.90;;;;;;5117696;27;20042;-61
2024/03/14 00:47:49;;;;;;;10.85;6.07;;;11.20;99.90;;;;;;5121164;27;20042;-61
2024/03/14 00:50:14;;;;;;;12.20;6.72;;;11.30;99.90;;;;;;5116595;27;20043;-61
2024/03/14 00:52:40;;;;;;;9.63;6.32;;;11.30;99.90;;;;;;5127050;27;20042;-61
2024/03/14 00:55:09;;;;;;;11.95;6.38;;;11.30;99.90;;;;;;5115395;27;20508;-62
2024/03/14 00:57:35;;;;;;;10.45;6.18;;;11.30;99.90;;;;;;5113978;27;20077;-62
2024/03/14 01:00:01;;;;;;;12.00;5.97;;;11.30;99.90;;;;;;5114237;27;20031;-61
2024/03/14 01:02:27;;;;;;;10.98;6.70;;;11.30;99.90;;;;;;5122856;27;20520;-62
2024/03/14 01:04:54;;;;;;;10.00;6.32;;;11.30;99.90;;;;;;5112996;27;20047;-62
2024/03/14 01:07:23;;;;;;;10.48;6.18;;;11.30;99.90;;;;;;5120682;27;20035;-61
2024/03/14 01:09:48;;;;;;;11.88;5.80;;;11.30;99.90;;;;;;5114463;27;20494;-61
2024/03/14 01:12:14;;;;;;;13.93;6.22;;;11.30;99.90;;;;;;5118716;27;20589;-61
2024/03/14 01:14:40;;;;;;;11.23;6.18;;;11.20;99.90;;;;;;5120573;27;20089;-61
2024/03/14 01:17:06;;;;;;;10.25;6.57;;;11.30;99.90;;;;;;5125595;27;20146;-61
2024/03/14 01:19:32;;;;;;;11.55;5.95;;;11.20;99.90;;;;;;5117693;27;20038;-61
2024/03/14 01:21:58;;;;;;;9.77;5.90;;;11.10;99.90;;;;;;5119120;27;20179;-62
2024/03/14 01:24:24;;;;;;;14.35;6.68;;;11.20;99.90;;;;;;5114045;27;20359;-61
2024/03/14 01:26:49;;;;;;;11.55;6.93;;;11.10;99.90;;;;;;5114356;27;20043;-61
2024/03/14 01:29:16;;;;;;;11.07;6.40;;;11.10;99.90;;;;;;5119150;27;20043;-61
2024/03/14 01:31:43;;;;;;;8.10;5.70;;;11.10;99.90;;;;;;5120334;27;20151;-61
2024/03/14 01:34:09;;;;;;;8.80;5.68;;;11.20;99.90;;;;;;5120807;27;20157;-62
2024/03/14 01:36:38;;;;;;;8.40;5.85;;;11.10;99.90;;;;;;5122700;27;20490;-60
2024/03/14 01:39:09;;;;;;;;;;;11.10;99.90;;;;;;5115871;27;20619;-62
2024/03/14 01:41:35;;;;;;;9.30;4.80;;;11.10;99.90;;;;;;5114055;27;19919;-61
2024/03/14 01:44:02;;;;;;;11.70;5.55;;;11.10;99.90;;;;;;5115394;27;20038;-61
2024/03/14 01:46:32;;;;;;;12.38;5.70;;;11.10;99.90;;;;;;5115109;27;20038;-61
2024/03/14 01:48:59;;;;;;;5.88;4.55;;;11.10;99.90;;;;;;5118575;27;20043;-62
2024/03/14 01:51:26;;;;;;;9.15;5.35;;;11.10;99.90;;;;;;5115324;27;20383;-61
2024/03/14 01:53:52;;;;;;;9.85;5.03;;;11.00;99.90;;;;;;5112250;27;20046;-61
2024/03/14 01:56:22;;;;;;;7.93;4.85;;;11.00;99.90;;;;;;5118269;27;20508;-61
2024/03/14 01:58:52;;;;;;;7.95;4.93;;;10.90;99.90;;;;;;5122076;27;20043;-62
2024/03/14 02:01:22;;;;;;;11.25;5.93;;;10.90;99.90;;;;;;5115726;27;20051;-61
2024/03/14 02:04:12;;;;;;;11.88;4.50;;;10.80;99.90;;;;;;5116603;27;20457;-61
2024/03/14 02:06:47;;;;;;;;;;;10.80;99.90;;;;;;5119639;27;20104;-62
2024/03/14 02:09:13;;;;;;;10.43;4.90;;;10.80;99.90;;;;;;5117076;27;19971;-61
2024/03/14 02:11:39;;;;;;;7.30;4.55;;;10.80;99.90;;;;;;5114351;27;20083;-61
2024/03/14 02:14:06;;;;;;;10.65;4.10;;;10.70;99.90;;;;;;5117913;27;20045;-61
2024/03/14 02:16:32;;;;;;;9.13;4.50;;;10.70;99.90;;;;;;5121980;27;20039;-61
2024/03/14 02:18:58;;;;;;;6.93;4.10;;;10.70;99.90;;;;;;5115243;27;20089;-61
2024/03/14 02:21:24;;;;;;;8.10;4.43;;;10.70;99.90;;;;;;5118361;27;20485;-61
2024/03/14 02:23:49;;;;;;;10.85;4.57;;;10.70;99.90;;;;;;5117780;27;20401;-62
2024/03/14 02:26:15;;;;;;;6.40;3.88;;;10.70;99.90;;;;;;5121048;27;20126;-61
2024/03/14 02:28:41;;;;;;;8.88;4.10;;;10.70;99.90;;;;;;5120436;27;20039;-62
2024/03/14 02:31:07;;;;;;;11.88;4.63;;;10.60;99.90;;;;;;5114790;27;20043;-61
2024/03/14 02:33:33;;;;;;;7.53;3.63;;;10.70;99.90;;;;;;5116928;27;20616;-61
2024/03/14 02:35:59;;;;;;;9.30;4.40;;;10.70;99.90;;;;;;5118925;27;20237;-61
2024/03/14 02:38:25;;;;;;;8.45;4.20;;;10.70;99.90;;;;;;5119251;27;20043;-61
2024/03/14 02:40:50;;;;;;;9.23;4.13;;;10.70;99.90;;;;;;5112712;27;20035;-61
2024/03/14 02:43:16;;;;;;;13.13;5.00;;;10.70;99.90;;;;;;5117844;27;20064;-61
2024/03/14 02:45:42;;;;;;;7.95;4.60;;;10.70;99.90;;;;;;5116927;27;20035;-61
2024/03/14 02:48:07;;;;;;;10.60;4.60;;;10.70;99.90;;;;;;5114316;28;20038;-61
2024/03/14 02:50:33;;;;;;;8.30;4.50;;;10.70;99.90;;;;;;5110645;27;20079;-61
2024/03/14 02:52:59;;;;;;;8.55;4.68;;;10.70;99.90;;;;;;5117114;27;20057;-61
2024/03/14 02:55:25;;;;;;;8.88;4.75;;;10.70;99.90;;;;;;5122811;27;20046;-61
2024/03/14 02:57:51;;;;;;;11.07;5.40;;;10.60;99.90;;;;;;5115634;27;20397;-61
2024/03/14 03:00:19;;;;;;;7.57;4.30;;;10.60;99.90;;;;;;5118149;27;20031;-62
2024/03/14 03:02:44;;;;;;;12.10;4.72;;;10.60;99.90;;;;;;5126664;27;20039;-61
2024/03/14 03:05:10;;;;;;;13.98;4.80;;;10.60;99.90;;;;;;5120804;27;20497;-61
2024/03/14 03:07:37;;;;;;;8.35;4.90;;;10.50;99.90;;;;;;5121590;27;20039;-61
2024/03/14 03:10:06;;;;;;;12.20;5.80;;;10.50;99.90;;;;;;5121661;27;20155;-61
2024/03/14 03:12:39;;;;;;;8.70;4.70;;;10.50;99.90;;;;;;5122164;27;20051;-61
2024/03/14 03:15:06;;;;;;;9.73;5.72;;;10.40;99.90;;;;;;5115290;27;20122;-61
2024/03/14 03:17:32;;;;;;;7.95;5.40;;;10.50;99.90;;;;;;5121967;27;20179;-61
2024/03/14 03:19:57;;;;;;;10.20;5.13;;;10.40;99.90;;;;;;5120146;27;20533;-61
2024/03/14 03:22:28;;;;;;;9.60;5.53;;;10.40;99.90;;;;;;5120929;27;20043;-61
2024/03/14 03:24:53;;;;;;;10.35;5.18;;;10.40;99.90;;;;;;5122453;27;20043;-61
2024/03/14 03:27:19;;;;;;;13.60;5.28;;;10.40;99.90;;;;;;5123869;27;20115;-61
2024/03/14 03:29:45;;;;;;;10.93;6.28;;;10.30;99.90;;;;;;5116629;27;20427;-61
2024/03/14 03:32:11;;;;;;;9.32;6.93;;;10.30;99.90;;;;;;5114486;27;20039;-61
2024/03/14 03:34:36;;;;;;;7.72;6.28;;;10.40;99.90;;;;;;5121738;27;20051;-61
2024/03/14 03:37:02;;;;;;;9.60;6.53;;;10.30;99.90;;;;;;5126036;27;20083;-61
2024/03/14 03:39:31;;;;;;;11.00;7.30;;;10.40;99.90;;;;;;5118337;27;20115;-62
2024/03/14 03:41:56;;;;;;;10.95;8.38;;;10.40;99.90;;;;;;5118292;27;20047;-61
2024/03/14 03:44:23;;;;;;;10.05;7.90;;;10.30;99.90;;;;;;5123445;27;20508;-61
2024/03/14 03:46:50;;;;;;;13.30;9.07;;;10.30;99.90;;;;;;5121623;27;20050;-61
2024/03/14 03:49:17;;;;;;;12.27;8.73;;;10.30;99.90;;;;;;5122363;27;20400;-60
2024/03/14 03:51:45;;;;;;;13.48;10.00;;;10.30;99.90;;;;;;5126144;27;20034;-61
2024/03/14 03:54:11;;;;;;;13.55;10.85;;;10.30;99.90;;;;;;5120202;27;20039;-61
2024/03/14 03:56:36;;;;;;;14.68;11.52;;;10.30;99.90;;;;;;5121408;27;20061;-61
2024/03/14 03:59:02;;;;;;;15.70;11.77;;;10.30;99.90;;;;;;5115930;27;20124;-61
2024/03/14 04:01:28;;;;;;;15.70;12.60;;;10.40;99.90;;;;;;5122783;27;20494;-61
2024/03/14 04:03:54;;;;;;;14.90;13.00;;;10.40;99.90;;;;;;5122269;27;20043;-61
2024/03/14 04:06:21;;;;;;;18.73;13.40;;;10.30;99.90;;;;;;5120693;27;20031;-62
2024/03/14 04:08:47;;;;;;;17.13;13.65;;;10.40;99.90;;;;;;5121739;27;20090;-62
2024/03/14 04:11:12;;;;;;;17.50;14.20;;;10.30;99.90;;;;;;5119773;27;20071;-61
2024/03/14 04:13:38;;;;;;;18.02;14.00;;;10.40;99.90;;;;;;5119124;27;20035;-62
2024/03/14 04:16:04;;;;;;;22.08;15.35;;;10.40;99.90;;;;;;5121787;27;20478;-61
2024/03/14 04:18:34;;;;;;;17.88;14.73;;;10.40;99.90;;;;;;5117837;27;20071;-61
2024/03/14 04:21:02;;;;;;;21.05;14.38;;;10.40;99.90;;;;;;5120995;27;20061;-62
2024/03/14 04:23:28;;;;;;;19.60;14.95;;;10.30;99.90;;;;;;5120769;27;20035;-62
2024/03/14 04:25:54;;;;;;;18.77;14.23;;;10.30;99.90;;;;;;5123275;27;20031;-61
2024/03/14 04:28:25;;;;;;;17.40;14.57;;;10.40;99.90;;;;;;5118158;27;20080;-61
2024/03/14 04:30:51;;;;;;;20.02;15.18;;;10.30;99.90;;;;;;5116993;27;20031;-61
2024/03/14 04:33:18;;;;;;;19.38;15.55;;;10.30;99.90;;;;;;5112436;27;20493;-62
2024/03/14 04:35:45;;;;;;;20.30;15.90;;;10.30;99.90;;;;;;5114862;27;20039;-61
2024/03/14 04:38:12;;;;;;;18.17;15.15;;;10.30;99.90;;;;;;5122096;27;20046;-61
2024/03/14 04:40:38;;;;;;;17.25;14.77;;;10.30;99.90;;;;;;5124878;27;20035;-61
2024/03/14 04:43:04;;;;;;;19.35;15.50;;;10.20;99.90;;;;;;5120138;27;20119;-61
2024/03/14 04:45:30;;;;;;;20.83;15.63;;;10.20;99.90;;;;;;5119499;27;20045;-61
2024/03/14 04:47:55;;;;;;;19.08;14.88;;;10.10;99.90;;;;;;5115188;27;20669;-61
2024/03/14 04:50:21;;;;;;;23.33;15.93;;;10.10;99.90;;;;;;5121744;27;20482;-61
2024/03/14 04:52:48;;;;;;;17.88;14.68;;;10.20;99.90;;;;;;5121190;27;20054;-61
2024/03/14 04:55:14;;;;;;;25.73;15.63;;;10.10;99.90;;;;;;5113439;27;20040;-61
2024/03/14 04:57:41;;;;;;;18.10;14.60;;;10.10;99.90;;;;;;5120327;27;20062;-61
2024/03/14 05:00:25;;;;;;;17.13;14.18;;;10.20;99.90;;;;;;5122424;27;20041;-61
2024/03/14 05:02:52;;;;;;;18.75;14.60;;;10.10;99.90;;;;;;5123239;27;20038;-61
2024/03/14 05:05:20;;;;;;;18.02;14.63;;;10.20;99.90;;;;;;5118121;27;20047;-62
2024/03/14 05:07:48;;;;;;;18.98;14.68;;;10.10;99.90;;;;;;5118281;27;20043;-61
2024/03/14 05:10:17;;;;;;;18.15;15.10;;;10.10;99.90;;;;;;5122011;27;20062;-61
2024/03/14 05:12:43;;;;;;;16.92;14.98;;;10.10;99.90;;;;;;5117888;27;20039;-61
2024/03/14 05:15:09;;;;;;;18.25;15.10;;;10.10;99.90;;;;;;5115915;27;21365;-61
2024/03/14 05:17:36;;;;;;;18.10;15.07;;;10.00;99.90;;;;;;5118911;27;20043;-61
2024/03/14 05:20:05;;;;;;;17.17;13.90;;;10.10;99.90;;;;;;5113909;27;20043;-61
2024/03/14 05:22:33;;;;;;;18.48;14.65;;;10.10;99.90;;;;;;5115005;27;20112;-61
2024/03/14 05:25:04;;;;;;;15.23;13.60;;;10.00;99.90;;;;;;5122146;27;20058;-62
2024/03/14 05:27:29;;;;;;;21.83;15.15;;;10.10;99.90;;;;;;5118062;27;20070;-61
2024/03/14 05:29:55;;;;;;;20.92;14.40;;;10.10;99.90;;;;;;5115410;27;20039;-61
2024/03/14 05:32:23;;;;;;;17.25;14.13;;;10.00;99.90;;;;;;5121478;27;20039;-61
2024/03/14 05:34:49;;;;;;;16.98;14.35;;;10.00;99.90;;;;;;5127782;27;20078;-61
2024/03/14 05:37:15;;;;;;;17.92;13.85;;;10.10;99.90;;;;;;5123093;27;20039;-61
2024/03/14 05:39:41;;;;;;;17.25;14.15;;;10.00;99.90;;;;;;5112165;27;20090;-62
2024/03/14 05:42:12;;;;;;;17.58;14.77;;;10.10;99.90;;;;;;5111818;27;20035;-61
2024/03/14 05:44:41;;;;;;;17.20;14.73;;;10.00;99.90;;;;;;5116144;27;20031;-61
2024/03/14 05:47:10;;;;;;;17.45;14.88;;;10.10;99.90;;;;;;5118840;27;20506;-61
2024/03/14 05:49:36;;;;;;;16.70;14.60;;;10.00;99.90;;;;;;5116217;27;20070;-61
2024/03/14 05:52:03;;;;;;;18.00;14.68;;;10.10;99.90;;;;;;5116120;27;20035;-61
2024/03/14 05:54:29;;;;;;;17.40;13.57;;;10.00;99.90;;;;;;5121333;27;20034;-61
2024/03/14 05:56:55;;;;;;;15.63;13.35;;;10.10;99.90;;;;;;5113376;27;20042;-61
2024/03/14 05:59:21;;;;;;;15.45;13.70;;;10.10;99.90;;;;;;5118995;27;20119;-61
2024/03/14 06:01:47;;;;;;;15.35;13.43;;;10.10;99.90;;;;;;5113802;27;20425;-61
2024/03/14 06:04:13;;;;;;;16.08;13.55;;;10.10;99.90;;;;;;5115211;27;20044;-61
2024/03/14 06:06:39;;;;;;;14.93;12.93;;;10.10;99.90;;;;;;5116129;27;20127;-62
2024/03/14 06:09:05;;;;;;;16.45;13.20;;;10.10;99.90;;;;;;5115527;27;20064;-61
2024/03/14 06:11:34;;;;;;;16.52;13.52;;;10.10;99.90;;;;;;5119235;27;20131;-61
2024/03/14 06:14:00;;;;;;;14.95;12.98;;;10.10;99.90;;;;;;5125713;27;20117;-61
2024/03/14 06:16:28;;;;;;;15.75;13.02;;;10.10;99.90;;;;;;5128334;27;20090;-62
2024/03/14 06:18:54;;;;;;;14.70;12.82;;;10.10;99.90;;;;;;5117420;27;20047;-61
2024/03/14 06:21:21;;;;;;;16.33;13.50;;;10.00;99.90;;;;;;5116172;27;20140;-61
2024/03/14 06:23:50;;;;;;;14.65;13.05;;;10.00;99.90;;;;;;5122945;27;20043;-49
2024/03/14 06:26:16;;;;;;;16.03;13.30;;;10.10;99.90;;;;;;5125678;27;21010;-62
2024/03/14 06:28:42;;;;;;;14.48;12.93;;;10.00;99.90;;;;;;5121929;27;20405;-61
2024/03/14 06:31:08;;;;;;;15.55;12.95;;;10.00;99.90;;;;;;5128030;27;20038;-61
2024/03/14 06:33:33;;;;;;;18.73;12.77;;;10.00;99.90;;;;;;5126774;27;20042;-61
2024/03/14 06:35:59;;;;;;;17.17;12.55;;;10.00;99.90;;;;;;5125105;27;20065;-61
2024/03/14 06:38:25;;;;;;;17.05;12.77;;;10.00;99.90;;;;;;5126900;27;20808;-61
2024/03/14 06:40:52;;;;;;;14.90;12.43;;;10.00;99.90;;;;;;5125261;27;20537;-61
2024/03/14 06:43:22;;;;;;;18.35;13.40;;;10.00;99.90;;;;;;5123797;27;20476;-61
2024/03/14 06:45:48;;;;;;;17.85;13.52;;;10.00;99.90;;;;;;5124829;27;20039;-61
2024/03/14 06:48:15;;;;;;;17.20;13.18;;;10.00;99.90;;;;;;5122173;27;20442;-61
2024/03/14 06:50:41;;;;;;;15.00;12.45;;;10.00;99.90;;;;;;5125407;27;20121;-62
2024/03/14 06:53:07;;;;;;;12.98;11.68;;;10.00;99.90;;;;;;5124165;27;20045;-61
2024/03/14 06:55:33;;;;;;;14.95;13.32;;;10.00;99.90;;;;;;5123682;27;20038;-61
2024/03/14 06:57:59;;;;;;;13.82;12.38;;;10.00;99.90;;;;;;5124690;27;20554;-61
2024/03/14 07:00:27;;;;;;;13.23;11.82;;;10.10;99.90;;;;;;5129756;27;20162;-61
2024/03/14 07:02:52;;;;;;;18.17;13.00;;;10.00;99.90;;;;;;5126434;27;20545;-62
2024/03/14 07:05:22;;;;;;;18.73;13.50;;;10.00;99.90;;;;;;5126491;27;20035;-61
2024/03/14 07:07:49;;;;;;;13.73;12.32;;;10.00;99.90;;;;;;5127697;27;20043;-61
2024/03/14 07:10:16;;;;;;;21.02;13.10;;;10.10;99.90;;;;;;5126765;27;20135;-62
2024/03/14 07:12:45;;;;;;;14.38;12.38;;;10.10;99.90;;;;;;5124050;27;20035;-61
2024/03/14 07:15:12;;;;;;;14.52;12.23;;;10.20;99.90;;;;;;5124350;27;20066;-61
2024/03/14 07:17:38;;;;;;;14.52;12.93;;;10.20;99.90;;;;;;5124792;27;20042;-61
2024/03/14 07:20:18;;;;;;;13.43;11.77;;;10.30;99.90;;;;;;5125635;27;20031;-61
2024/03/14 07:22:45;;;;;;;17.75;13.05;;;10.20;99.90;;;;;;5142457;27;20034;-61
2024/03/14 07:25:13;;;;;;;15.85;12.73;;;10.40;99.90;;;;;;5126014;27;20043;-61
2024/03/14 07:27:39;;;;;;;15.40;12.90;;;10.50;99.90;;;;;;5126348;27;20046;-61
2024/03/14 07:30:13;;;;;;;16.02;12.25;;;10.60;99.90;;;;;;5126057;27;20129;-61
2024/03/14 07:32:40;;;;;;;15.07;11.68;;;10.70;99.90;;;;;;5122412;27;20035;-61
2024/03/14 07:35:07;;;;;;;16.55;12.70;;;10.70;99.90;;;;;;5122983;27;20038;-61
2024/03/14 07:37:34;;;;;;;13.23;11.93;;;10.80;99.90;;;;;;5120226;27;20628;-61
2024/03/14 07:40:00;;;;;;;15.57;12.30;;;10.80;99.90;;;;;;5125055;27;20035;-61
2024/03/14 07:42:27;;;;;;;15.38;13.38;;;11.00;99.90;;;;;;5122494;27;20061;-60
2024/03/14 07:44:54;;;;;;;13.88;12.25;;;11.00;99.90;;;;;;5123069;27;20039;-60
2024/03/14 07:47:23;;;;;;;16.52;12.55;;;11.20;99.90;;;;;;5129139;27;20342;-61
2024/03/14 07:49:50;;;;;;;14.40;12.60;;;11.40;99.90;;;;;;5128894;27;20120;-61
2024/03/14 07:52:16;;;;;;;15.45;11.88;;;11.50;99.90;;;;;;5124516;27;20047;-60
2024/03/14 07:54:47;;;;;;;16.17;11.90;;;11.50;99.90;;;;;;5129342;27;20031;-61
2024/03/14 07:57:15;;;;;;;14.88;12.00;;;11.50;99.90;;;;;;5128807;27;20043;-61
2024/03/14 07:59:41;;;;;;;14.35;12.48;;;11.50;99.90;;;;;;5128199;27;20047;-61
2024/03/14 08:02:07;;;;;;;13.48;11.63;;;11.50;99.90;;;;;;5128432;27;20035;-62
2024/03/14 08:04:34;;;;;;;15.32;12.27;;;11.50;99.90;;;;;;5131445;27;20038;-61
2024/03/14 08:07:10;;;;;;;15.73;11.98;;;11.60;99.90;;;;;;5123153;27;20043;-60
2024/03/14 08:09:37;;;;;;;16.65;14.00;;;11.60;99.90;;;;;;5127638;27;20050;-62
2024/03/14 08:12:04;;;;;;;15.15;12.75;;;11.60;99.90;;;;;;5129076;27;20039;-61
2024/03/14 08:14:30;;;;;;;14.75;12.77;;;11.70;99.90;;;;;;5127187;27;20039;-61
2024/03/14 08:16:57;;;;;;;19.83;13.40;;;11.80;99.90;;;;;;5126500;27;20031;-61
2024/03/14 08:19:23;;;;;;;14.95;13.35;;;11.90;99.90;;;;;;5122976;27;20035;-61
2024/03/14 08:21:48;;;;;;;18.65;14.05;;;11.90;99.90;;;;;;5123971;27;20049;-61
2024/03/14 08:24:16;;;;;;;15.77;12.23;;;11.90;99.90;;;;;;5129993;27;20046;-61
2024/03/14 08:26:45;;;;;;;20.77;12.60;;;11.90;99.90;;;;;;5128873;27;20035;-61
2024/03/14 08:29:11;;;;;;;;;;;12.00;99.90;;;;;;5129654;27;20034;-61
2024/03/14 08:31:36;;;;;;;19.75;13.35;;;12.10;99.90;;;;;;5129421;27;20434;-61
2024/03/14 08:34:05;;;;;;;14.88;13.25;;;12.20;99.90;;;;;;5128592;27;20039;-61
2024/03/14 08:36:32;;;;;;;16.05;13.00;;;12.10;99.90;;;;;;5130664;27;20489;-61
2024/03/14 08:38:57;;;;;;;15.93;13.05;;;12.10;99.90;;;;;;5124450;27;20073;-61
2024/03/14 08:41:23;;;;;;;18.65;13.85;;;12.20;99.90;;;;;;5128537;27;20460;-61
2024/03/14 08:43:50;;;;;;;16.65;14.00;;;12.30;99.90;;;;;;5125699;27;20074;-61
2024/03/14 08:46:16;;;;;;;21.23;14.02;;;12.40;99.90;;;;;;5126368;27;20072;-61
2024/03/14 08:48:42;;;;;;;18.35;13.95;;;12.40;99.90;;;;;;5125057;27;20043;-61
2024/03/14 08:51:09;;;;;;;16.80;13.63;;;12.50;99.90;;;;;;5125569;27;20061;-61
2024/03/14 08:56:20;;;;;;;16.90;12.93;;;12.70;99.90;;;;;;5124035;27;20098;-61
2024/03/14 08:58:47;;;;;;;15.93;12.75;;;12.70;99.90;;;;;;5125619;27;20039;-60
2024/03/14 09:01:12;;;;;;;13.93;12.43;;;12.80;99.90;;;;;;5127358;27;20219;-62
2024/03/14 09:03:38;;;;;;;16.38;12.93;;;12.90;99.90;;;;;;5126796;27;20036;-61
2024/03/14 09:06:05;;;;;;;18.33;12.98;;;13.00;99.90;;;;;;5124480;27;20039;-61
2024/03/14 09:08:31;;;;;;;17.23;13.05;;;13.20;99.90;;;;;;5123626;27;20038;-61
2024/03/14 09:10:56;;;;;;;18.13;12.68;;;13.30;99.90;;;;;;5123504;27;20412;-61
2024/03/14 09:13:23;;;;;;;15.63;12.90;;;13.40;99.90;;;;;;5118886;27;20466;-61
2024/03/14 09:15:50;;;;;;;14.48;12.73;;;13.30;99.90;;;;;;5122957;27;20110;-61
2024/03/14 09:18:17;;;;;;;15.32;12.18;;;13.50;99.90;;;;;;5125936;27;20075;-61
2024/03/14 09:20:46;;;;;;;17.70;12.50;;;13.60;99.90;;;;;;5122761;27;20034;-61
2024/03/14 09:23:19;;;;;;;15.00;11.60;;;13.70;99.90;;;;;;5120384;27;20089;-61
2024/03/14 09:25:45;;;;;;;14.88;12.27;;;13.80;99.90;;;;;;5124281;27;20047;-62
2024/03/14 09:28:11;;;;;;;16.27;11.50;;;13.80;99.90;;;;;;5123742;27;20046;-61
2024/03/14 09:30:37;;;;;;;15.15;12.15;;;13.80;99.90;;;;;;5123025;27;20039;-61
2024/03/14 09:33:03;;;;;;;15.15;12.35;;;13.90;99.90;;;;;;5123852;27;20064;-61
2024/03/14 09:35:29;;;;;;;14.13;11.52;;;13.80;99.90;;;;;;5123987;27;20134;-61
2024/03/14 09:37:55;;;;;;;13.23;10.95;;;13.80;99.90;;;;;;5123768;27;20117;-61
2024/03/14 09:40:22;;;;;;;16.75;11.07;;;13.70;99.90;;;;;;5125016;27;20079;-61
2024/03/14 09:42:59;;;;;;;17.15;11.95;;;13.70;99.90;;;;;;5126064;27;20061;-60
2024/03/14 09:45:30;;;;;;;17.67;11.43;;;13.80;99.90;;;;;;5127596;27;20031;-62
2024/03/14 09:47:56;;;;;;;14.07;11.43;;;13.80;99.90;;;;;;5123947;27;20116;-61
2024/03/14 09:50:24;;;;;;;14.25;11.95;;;13.90;99.90;;;;;;5126007;27;20044;-61
2024/03/14 09:52:50;;;;;;;14.70;11.98;;;13.90;99.90;;;;;;5126887;27;20043;-61
2024/03/14 09:55:17;;;;;;;13.02;11.30;;;14.00;99.90;;;;;;5120174;27;20680;-60
2024/03/14 09:57:43;;;;;;;16.88;12.02;;;14.00;99.90;;;;;;5119143;27;20100;-60
2024/03/14 10:00:11;;;;;;;16.92;11.27;;;14.00;99.90;;;;;;5126767;27;20043;-61
2024/03/14 10:02:40;;;;;;;14.48;11.32;;;14.10;99.90;;;;;;5124046;27;20031;-60
2024/03/14 10:05:12;;;;;;;15.75;10.55;;;14.20;99.90;;;;;;5123106;27;20743;-64
2024/03/14 10:07:39;;;;;;;17.42;11.27;;;14.10;99.90;;;;;;5126806;27;20425;-61
2024/03/14 10:10:08;;;;;;;13.50;11.18;;;14.10;99.90;;;;;;5125588;27;20067;-61
2024/03/14 10:12:33;;;;;;;;;;;14.10;99.90;;;;;;5118101;27;20046;-60
2024/03/14 10:15:00;;;;;;;15.60;10.85;;;14.20;99.90;;;;;;5125462;27;20378;-61
2024/03/14 10:17:31;;;;;;;15.23;10.75;;;14.20;99.90;;;;;;5124418;27;20078;-61
2024/03/14 10:20:00;;;;;;;13.38;11.32;;;14.20;99.90;;;;;;5123099;27;20113;-61
2024/03/14 10:22:26;;;;;;;;;;;14.40;99.90;;;;;;5123969;27;20073;-61
2024/03/14 10:24:52;;;;;;;12.88;9.93;;;14.50;99.90;;;;;;5122680;27;19947;-61
2024/03/14 10:27:19;;;;;;;16.55;10.52;;;14.70;99.90;;;;;;5122586;27;20043;-61
2024/03/14 10:29:46;;;;;;;12.82;9.75;;;14.90;99.90;;;;;;5123594;27;20553;-61
2024/03/14 10:32:12;;;;;;;12.50;9.63;;;15.10;99.90;;;;;;5127969;27;20054;-61
2024/03/14 10:34:38;;;;;;;12.43;10.32;;;15.40;99.90;;;;;;5124748;27;20046;-61
2024/03/14 10:37:14;;;;;;;12.52;9.85;;;15.60;99.90;;;;;;5127876;27;20043;-61
2024/03/14 10:39:54;;;;;;;14.38;9.70;;;15.80;99.90;;;;;;5124262;27;20039;-61
2024/03/14 10:42:24;;;;;;;12.55;9.50;;;16.00;99.90;;;;;;5126585;27;20035;-61
2024/03/14 10:44:52;;;;;;;12.43;9.68;;;16.20;99.90;;;;;;5125813;27;20031;-61
2024/03/14 10:47:19;;;;;;;11.90;9.13;;;16.20;99.90;;;;;;5126604;27;20098;-61
2024/03/14 10:49:47;;;;;;;10.90;8.27;;;16.30;99.90;;;;;;5126437;27;20409;-61
2024/03/14 10:52:17;;;;;;;9.57;8.32;;;16.70;99.90;;;;;;5125252;27;20628;-61
2024/03/14 10:54:49;;;;;;;12.40;8.35;;;16.70;99.90;;;;;;5123522;27;20507;-61
2024/03/14 10:57:19;;;;;;;10.13;7.93;;;17.00;99.90;;;;;;5125227;27;20039;-61
2024/03/14 10:59:47;;;;;;;12.98;8.85;;;17.00;99.90;;;;;;5126145;27;20078;-61
2024/03/14 11:02:14;;;;;;;11.52;8.05;;;16.70;99.90;;;;;;5124964;27;20039;-62
2024/03/14 11:04:44;;;;;;;11.20;8.40;;;16.70;99.90;;;;;;5124411;27;20040;-60
2024/03/14 11:07:13;;;;;;;10.57;8.40;;;16.70;99.90;;;;;;5127144;27;20234;-61
2024/03/14 11:09:46;;;;;;;;;;;16.70;99.90;;;;;;5127346;27;20046;-61
2024/03/14 11:12:20;;;;;;;10.32;8.20;;;16.50;99.90;;;;;;5126342;27;20498;-62
2024/03/14 11:14:50;;;;;;;10.70;8.32;;;16.60;99.90;;;;;;5126829;27;20050;-61
2024/03/14 11:17:18;;;;;;;17.25;9.48;;;16.80;99.90;;;;;;5124408;27;20036;-61
2024/03/14 11:19:47;;;;;;;11.97;8.83;;;16.80;99.90;;;;;;5128907;27;20171;-60
2024/03/14 11:22:17;;;;;;;13.93;9.02;;;16.80;99.90;;;;;;5130952;27;20031;-62
2024/03/14 11:24:47;;;;;;;11.07;8.10;;;16.80;99.90;;;;;;5130095;27;20549;-61
2024/03/14 11:27:15;;;;;;;10.85;7.68;;;16.80;99.90;;;;;;5129829;27;20043;-61
2024/03/14 11:29:42;;;;;;;11.45;9.18;;;16.90;99.90;;;;;;5131684;27;20039;-61
2024/03/14 11:32:18;;;;;;;13.38;8.48;;;16.90;99.90;;;;;;5131091;27;20042;-61
2024/03/14 11:34:47;;;;;;;10.80;7.97;;;16.80;99.90;;;;;;5130111;27;20118;-62
2024/03/14 11:37:14;;;;;;;10.10;8.40;;;16.80;99.90;;;;;;5130752;27;20115;-61
2024/03/14 11:39:47;;;;;;;11.35;8.27;;;16.80;99.90;;;;;;5125762;27;20046;-61
2024/03/14 11:42:14;;;;;;;11.05;7.80;;;16.80;99.90;;;;;;5127669;27;20035;-61
2024/03/14 11:44:47;;;;;;;9.85;6.80;;;17.00;99.90;;;;;;5129033;27;20487;-61
2024/03/14 11:47:34;;;;;;;11.95;7.13;;;16.90;99.90;;;;;;5128769;27;20108;-61
2024/03/14 11:50:00;;;;;;;11.40;7.97;;;16.90;99.90;;;;;;5127592;27;20118;-62
2024/03/14 11:52:27;;;;;;;13.18;7.28;;;16.80;99.90;;;;;;5130331;27;20541;-61
2024/03/14 11:54:57;;;;;;;8.52;6.93;;;17.00;99.90;;;;;;5131021;27;20054;-61
2024/03/14 11:57:25;;;;;;;7.82;6.53;;;17.20;99.90;;;;;;5128610;27;20038;-61
2024/03/14 11:59:51;;;;;;;9.18;6.60;;;17.20;99.90;;;;;;5132503;27;20033;-61
2024/03/14 12:02:17;;;;;;;10.52;7.20;;;17.60;99.90;;;;;;5130656;27;20412;-61
2024/03/14 12:04:42;;;;;;;9.65;7.40;;;17.80;99.90;;;;;;5130510;27;20446;-61
2024/03/14 12:07:08;;;;;;;10.85;7.22;;;17.70;99.90;;;;;;5128310;27;20114;-61
2024/03/14 12:09:35;;;;;;;9.75;6.43;;;17.50;99.90;;;;;;5126463;27;20038;-61
2024/03/14 12:12:01;;;;;;;13.07;6.97;;;17.50;99.90;;;;;;5125858;27;20994;-61
2024/03/14 12:14:28;;;;;;;7.75;6.55;;;17.30;99.90;;;;;;5127202;27;20073;-61
2024/03/14 12:16:54;;;;;;;11.98;7.15;;;17.50;99.90;;;;;;5128957;27;20047;-61
2024/03/14 12:19:20;;;;;;;7.82;6.55;;;17.50;99.90;;;;;;5129559;27;20113;-61
2024/03/14 12:21:55;;;;;;;7.80;6.55;;;17.40;99.90;;;;;;5127903;27;20604;-61
2024/03/14 12:24:23;;;;;;;9.55;7.03;;;17.50;99.90;;;;;;5127140;27;20031;-61
2024/03/14 12:26:50;;;;;;;10.60;6.70;;;17.50;99.90;;;;;;5130724;27;20558;-61
2024/03/14 12:29:19;;;;;;;9.85;6.20;;;17.50;99.90;;;;;;5125308;27;20401;-61
2024/03/14 12:31:47;;;;;;;10.15;6.43;;;17.40;99.90;;;;;;5130082;27;20221;-61
2024/03/14 12:34:16;;;;;;;6.83;5.63;;;17.50;99.90;;;;;;5126279;27;20035;-61
2024/03/14 12:36:46;;;;;;;7.90;5.50;;;17.60;99.90;;;;;;5130962;27;20081;-61
2024/03/14 12:39:12;;;;;;;9.60;5.70;;;17.60;99.90;;;;;;5127253;27;20110;-60